createdAt,value
2018-09-27T00:00:54.675Z,13.85
2018-09-27T00:01:58.725Z,13.85
2018-09-27T00:03:02.748Z,13.85
2018-09-27T00:04:06.812Z,13.85
2018-09-27T00:05:10.980Z,13.84
2018-09-27T00:06:15.033Z,13.84
2018-09-27T00:07:19.402Z,13.85
2018-09-27T00:08:23.699Z,13.84
2018-09-27T00:09:27.728Z,13.85
2018-09-27T00:10:31.781Z,13.85
2018-09-27T00:11:35.857Z,13.84
2018-09-27T00:12:39.874Z,13.83
2018-09-27T00:13:43.934Z,13.83
2018-09-27T00:14:48.035Z,13.82
2018-09-27T00:15:52.420Z,13.82
2018-09-27T00:16:56.484Z,13.83
2018-09-27T00:18:00.521Z,13.83
2018-09-27T00:19:04.672Z,13.81
2018-09-27T00:20:08.840Z,13.81
2018-09-27T00:21:13.179Z,13.80
2018-09-27T00:22:17.259Z,13.80
2018-09-27T00:23:21.322Z,13.79
2018-09-27T00:24:25.387Z,13.79
2018-09-27T00:25:29.447Z,13.79
2018-09-27T00:26:33.604Z,13.78
2018-09-27T00:27:37.684Z,13.77
2018-09-27T00:28:41.996Z,13.76
2018-09-27T00:29:46.025Z,13.76
2018-09-27T00:30:50.045Z,13.75
2018-09-27T00:31:54.033Z,13.75
2018-09-27T00:32:58.199Z,13.73
2018-09-27T00:34:02.232Z,13.72
2018-09-27T00:35:06.386Z,13.71
2018-09-27T00:36:12.456Z,13.71
2018-09-27T00:37:16.470Z,13.70
2018-09-27T00:38:20.546Z,13.70
2018-09-27T00:39:24.622Z,13.68
2018-09-27T00:40:28.617Z,13.68
2018-09-27T00:41:32.728Z,13.67
2018-09-27T00:42:36.727Z,13.66
2018-09-27T00:43:40.776Z,13.65
2018-09-27T00:44:44.835Z,13.65
2018-09-27T00:45:48.852Z,13.64
2018-09-27T00:46:52.882Z,13.63
2018-09-27T00:47:56.905Z,13.63
2018-09-27T00:49:00.964Z,13.62
2018-09-27T00:50:05.508Z,13.61
2018-09-27T00:51:09.543Z,13.60
2018-09-27T00:52:13.563Z,13.60
2018-09-27T00:53:17.639Z,13.59
2018-09-27T00:54:21.771Z,13.59
2018-09-27T00:55:25.995Z,13.58
2018-09-27T00:56:30.041Z,13.58
2018-09-27T00:57:34.095Z,13.56
2018-09-27T00:58:38.147Z,13.58
2018-09-27T00:59:42.275Z,13.57
2018-09-27T01:00:46.283Z,13.55
2018-09-27T01:01:50.294Z,13.56
2018-09-27T01:02:54.319Z,13.55
2018-09-27T01:03:58.435Z,13.55
2018-09-27T01:05:02.577Z,13.54
2018-09-27T01:06:06.780Z,13.54
2018-09-27T01:07:10.806Z,13.54
2018-09-27T01:08:19.924Z,13.53
2018-09-27T01:09:24.067Z,13.49
2018-09-27T01:10:28.167Z,13.52
2018-09-27T01:11:32.194Z,13.51
2018-09-27T01:12:36.238Z,13.50
2018-09-27T01:13:42.328Z,13.49
2018-09-27T01:14:47.395Z,13.49
2018-09-27T01:15:51.537Z,13.48
2018-09-27T01:16:55.558Z,13.49
2018-09-27T01:17:59.530Z,13.49
2018-09-27T01:19:03.659Z,13.48
2018-09-27T01:20:07.679Z,13.47
2018-09-27T01:21:11.747Z,13.47
2018-09-27T01:22:15.877Z,13.46
2018-09-27T01:23:19.933Z,13.46
2018-09-27T01:24:24.014Z,13.46
2018-09-27T01:25:28.048Z,13.45
2018-09-27T01:26:32.038Z,13.45
2018-09-27T01:27:36.231Z,13.44
2018-09-27T01:28:40.239Z,13.44
2018-09-27T01:29:44.298Z,13.44
2018-09-27T01:30:48.307Z,13.42
2018-09-27T01:31:52.372Z,13.41
2018-09-27T01:32:56.382Z,13.41
2018-09-27T01:34:00.410Z,13.40
2018-09-27T01:35:04.669Z,13.39
2018-09-27T01:36:08.662Z,13.39
2018-09-27T01:37:13.013Z,13.39
2018-09-27T01:38:17.062Z,13.38
2018-09-27T01:39:21.179Z,13.38
2018-09-27T01:40:25.174Z,13.36
2018-09-27T01:41:29.197Z,13.37
2018-09-27T01:42:33.203Z,13.37
2018-09-27T01:43:37.470Z,13.37
2018-09-27T01:44:41.539Z,13.36
2018-09-27T01:45:45.803Z,13.36
2018-09-27T01:46:49.916Z,13.35
2018-09-27T01:47:53.921Z,13.34
2018-09-27T01:48:58.024Z,13.33
2018-09-27T01:50:02.032Z,13.32
2018-09-27T01:51:06.052Z,13.33
2018-09-27T01:52:10.116Z,13.32
2018-09-27T01:53:14.532Z,13.31
2018-09-27T01:54:18.595Z,13.31
2018-09-27T01:55:22.551Z,13.31
2018-09-27T01:56:26.836Z,13.30
2018-09-27T01:57:30.908Z,13.30
2018-09-27T01:58:34.979Z,13.28
2018-09-27T01:59:39.011Z,13.27
2018-09-27T02:00:43.163Z,13.27
2018-09-27T02:01:47.222Z,13.26
2018-09-27T02:02:51.255Z,13.27
2018-09-27T02:03:55.393Z,13.26
2018-09-27T02:04:59.378Z,13.26
2018-09-27T02:06:03.438Z,13.26
2018-09-27T02:07:07.478Z,13.24
2018-09-27T02:08:11.505Z,13.25
2018-09-27T02:09:15.535Z,13.25
2018-09-27T02:10:19.608Z,13.23
2018-09-27T02:11:24.096Z,13.23
2018-09-27T02:12:28.138Z,13.22
2018-09-27T02:13:32.506Z,13.22
2018-09-27T02:14:36.519Z,13.21
2018-09-27T02:15:40.582Z,13.20
2018-09-27T02:16:44.587Z,13.20
2018-09-27T02:17:48.623Z,13.20
2018-09-27T02:18:52.604Z,13.19
2018-09-27T02:19:56.703Z,13.19
2018-09-27T02:21:00.715Z,13.18
2018-09-27T02:22:04.706Z,13.18
2018-09-27T02:23:08.701Z,13.16
2018-09-27T02:24:12.732Z,13.16
2018-09-27T02:25:16.831Z,13.13
2018-09-27T02:26:20.842Z,13.14
2018-09-27T02:27:24.892Z,13.14
2018-09-27T02:28:29.030Z,13.12
2018-09-27T02:29:33.058Z,13.12
2018-09-27T02:30:37.383Z,13.12
2018-09-27T02:31:41.367Z,13.12
2018-09-27T02:32:45.362Z,13.12
2018-09-27T02:33:49.362Z,13.11
2018-09-27T02:34:53.408Z,13.10
2018-09-27T02:35:57.504Z,13.10
2018-09-27T02:37:01.536Z,13.08
2018-09-27T02:38:05.668Z,13.09
2018-09-27T02:39:10.878Z,13.08
2018-09-27T02:40:14.960Z,13.09
2018-09-27T02:41:18.963Z,13.08
2018-09-27T02:42:23.024Z,13.08
2018-09-27T02:43:27.041Z,13.06
2018-09-27T02:44:31.733Z,13.06
2018-09-27T02:45:35.739Z,13.06
2018-09-27T02:46:39.740Z,13.06
2018-09-27T02:47:44.399Z,13.05
2018-09-27T02:48:48.407Z,13.04
2018-09-27T02:49:52.522Z,13.04
2018-09-27T02:50:56.764Z,13.03
2018-09-27T02:52:01.054Z,13.02
2018-09-27T02:53:05.215Z,13.02
2018-09-27T02:54:09.194Z,13.01
2018-09-27T02:55:13.264Z,13.01
2018-09-27T02:56:17.707Z,13.00
2018-09-27T02:57:21.744Z,13.00
2018-09-27T02:58:25.715Z,13.00
2018-09-27T02:59:29.727Z,12.99
2018-09-27T03:00:33.762Z,12.99
2018-09-27T03:01:40.943Z,12.99
2018-09-27T03:02:45.314Z,12.98
2018-09-27T03:03:49.423Z,12.98
2018-09-27T03:04:53.400Z,12.98
2018-09-27T03:05:57.528Z,12.97
2018-09-27T03:07:01.563Z,12.96
2018-09-27T03:08:05.583Z,12.95
2018-09-27T03:09:11.238Z,12.95
2018-09-27T03:10:15.229Z,12.93
2018-09-27T03:11:19.266Z,12.93
2018-09-27T03:12:23.336Z,12.93
2018-09-27T03:13:27.336Z,12.93
2018-09-27T03:14:31.351Z,12.92
2018-09-27T03:15:35.344Z,12.91
2018-09-27T03:16:39.415Z,12.90
2018-09-27T03:17:43.453Z,12.89
2018-09-27T03:18:47.795Z,12.90
2018-09-27T03:19:51.771Z,12.90
2018-09-27T03:20:55.815Z,12.90
2018-09-27T03:21:59.763Z,12.90
2018-09-27T03:23:03.776Z,12.90
2018-09-27T03:24:07.908Z,12.90
2018-09-27T03:25:12.526Z,12.90
2018-09-27T03:26:16.512Z,12.89
2018-09-27T03:27:20.499Z,12.87
2018-09-27T03:28:24.959Z,12.87
2018-09-27T03:29:29.329Z,12.87
2018-09-27T03:30:33.489Z,12.87
2018-09-27T03:31:37.480Z,12.87
2018-09-27T03:32:41.487Z,12.86
2018-09-27T03:33:45.507Z,12.85
2018-09-27T03:34:49.530Z,12.84
2018-09-27T03:35:53.587Z,12.83
2018-09-27T03:36:58.040Z,12.82
2018-09-27T03:38:02.119Z,12.81
2018-09-27T03:39:07.837Z,12.79
2018-09-27T03:40:11.926Z,12.78
2018-09-27T03:41:15.892Z,12.77
2018-09-27T03:42:19.969Z,12.75
2018-09-27T03:43:23.987Z,12.75
2018-09-27T03:44:28.071Z,12.75
2018-09-27T03:45:32.163Z,12.74
2018-09-27T03:46:36.430Z,12.74
2018-09-27T03:47:40.456Z,12.74
2018-09-27T03:48:44.571Z,12.74
2018-09-27T03:49:48.738Z,12.74
2018-09-27T03:50:53.167Z,12.75
2018-09-27T03:51:57.378Z,12.75
2018-09-27T03:53:01.567Z,12.76
2018-09-27T03:54:05.594Z,12.75
2018-09-27T03:55:09.739Z,12.75
2018-09-27T03:56:13.751Z,12.74
2018-09-27T03:57:17.863Z,12.75
2018-09-27T03:58:21.872Z,12.74
2018-09-27T03:59:26.010Z,12.74
2018-09-27T04:00:30.730Z,12.75
2018-09-27T04:01:34.819Z,12.74
2018-09-27T04:02:40.251Z,12.74
2018-09-27T04:03:44.350Z,12.73
2018-09-27T04:04:48.652Z,12.74
2018-09-27T04:05:52.691Z,12.73
2018-09-27T04:06:56.815Z,12.73
2018-09-27T04:08:00.860Z,12.70
2018-09-27T04:09:07.087Z,12.72
2018-09-27T04:10:11.121Z,12.72
2018-09-27T04:11:15.171Z,12.72
2018-09-27T04:12:19.327Z,12.72
2018-09-27T04:13:23.361Z,12.71
2018-09-27T04:14:27.434Z,12.71
2018-09-27T04:15:31.551Z,12.71
2018-09-27T04:16:35.598Z,12.71
2018-09-27T04:17:39.656Z,12.70
2018-09-27T04:18:43.758Z,12.70
2018-09-27T04:19:47.805Z,12.69
2018-09-27T04:20:52.640Z,12.68
2018-09-27T04:21:56.617Z,12.67
2018-09-27T04:23:00.658Z,12.67
2018-09-27T04:24:04.691Z,12.66
2018-09-27T04:25:08.719Z,12.66
2018-09-27T04:26:12.792Z,12.66
2018-09-27T04:27:16.827Z,12.66
2018-09-27T04:28:21.709Z,12.66
2018-09-27T04:29:25.766Z,12.65
2018-09-27T04:30:29.867Z,12.64
2018-09-27T04:31:33.926Z,12.64
2018-09-27T04:32:38.001Z,12.63
2018-09-27T04:33:42.120Z,12.62
2018-09-27T04:34:46.153Z,12.61
2018-09-27T04:35:50.103Z,12.60
2018-09-27T04:36:54.149Z,12.61
2018-09-27T04:37:58.408Z,12.60
2018-09-27T04:39:02.585Z,12.60
2018-09-27T04:40:06.655Z,12.60
2018-09-27T04:41:10.737Z,12.59
2018-09-27T04:43:26.380Z,12.59
2018-09-27T04:44:30.575Z,12.59
2018-09-27T04:45:34.678Z,12.58
2018-09-27T04:46:38.756Z,12.59
2018-09-27T04:47:42.732Z,12.58
2018-09-27T04:48:46.755Z,12.58
2018-09-27T04:49:50.881Z,12.57
2018-09-27T04:50:55.140Z,12.57
2018-09-27T04:51:59.223Z,12.56
2018-09-27T04:53:03.656Z,12.56
2018-09-27T04:54:07.779Z,12.56
2018-09-27T04:55:11.867Z,12.57
2018-09-27T04:56:15.900Z,12.57
2018-09-27T04:57:19.911Z,12.56
2018-09-27T04:58:23.982Z,12.55
2018-09-27T04:59:27.975Z,12.55
2018-09-27T05:00:32.035Z,12.54
2018-09-27T05:01:36.067Z,12.55
2018-09-27T05:02:40.081Z,12.54
2018-09-27T05:03:44.133Z,12.53
2018-09-27T05:04:48.175Z,12.53
2018-09-27T05:05:52.267Z,12.53
2018-09-27T05:06:56.369Z,12.53
2018-09-27T05:08:00.491Z,12.53
2018-09-27T05:09:05.831Z,12.52
2018-09-27T05:10:09.871Z,12.52
2018-09-27T05:11:13.940Z,12.52
2018-09-27T05:12:17.983Z,12.51
2018-09-27T05:13:22.191Z,12.50
2018-09-27T05:14:26.225Z,12.49
2018-09-27T05:15:30.338Z,12.49
2018-09-27T05:16:34.453Z,12.49
2018-09-27T05:17:38.478Z,12.49
2018-09-27T05:18:42.541Z,12.49
2018-09-27T05:19:46.567Z,12.48
2018-09-27T05:20:50.571Z,12.48
2018-09-27T05:21:54.757Z,12.48
2018-09-27T05:22:58.810Z,12.48
2018-09-27T05:24:02.876Z,12.46
2018-09-27T05:25:06.894Z,12.47
2018-09-27T05:26:10.916Z,12.45
2018-09-27T05:27:14.995Z,12.46
2018-09-27T05:28:18.966Z,12.45
2018-09-27T05:29:23.030Z,12.45
2018-09-27T05:30:27.143Z,12.45
2018-09-27T05:31:31.917Z,12.45
2018-09-27T05:32:35.935Z,12.44
2018-09-27T05:33:40.026Z,12.43
2018-09-27T05:34:44.043Z,12.43
2018-09-27T05:35:48.084Z,12.43
2018-09-27T05:36:52.119Z,12.43
2018-09-27T05:37:56.343Z,12.42
2018-09-27T05:39:00.418Z,12.43
2018-09-27T05:40:04.507Z,12.44
2018-09-27T05:41:08.732Z,12.44
2018-09-27T05:42:12.787Z,12.42
2018-09-27T05:43:16.882Z,12.42
2018-09-27T05:44:20.954Z,12.43
2018-09-27T05:45:25.474Z,12.43
2018-09-27T05:46:29.486Z,12.42
2018-09-27T05:47:33.730Z,12.42
2018-09-27T05:48:37.815Z,12.43
2018-09-27T05:49:41.932Z,12.45
2018-09-27T05:50:45.939Z,12.45
2018-09-27T05:51:49.954Z,12.45
2018-09-27T05:52:53.991Z,12.44
2018-09-27T05:53:58.116Z,12.45
2018-09-27T05:55:02.180Z,12.46
2018-09-27T05:56:06.336Z,12.45
2018-09-27T05:57:10.710Z,12.46
2018-09-27T05:58:14.770Z,12.41
2018-09-27T05:59:18.831Z,12.47
2018-09-27T06:00:22.974Z,12.47
2018-09-27T06:01:28.505Z,12.49
2018-09-27T06:02:33.061Z,12.50
2018-09-27T06:03:37.791Z,12.49
2018-09-27T06:04:43.842Z,12.51
2018-09-27T06:05:48.584Z,12.51
2018-09-27T06:06:53.571Z,12.52
2018-09-27T06:07:59.067Z,12.53
2018-09-27T06:09:05.197Z,12.54
2018-09-27T06:10:09.286Z,12.56
2018-09-27T06:11:14.241Z,12.57
2018-09-27T06:12:18.880Z,12.59
2018-09-27T06:13:23.959Z,12.60
2018-09-27T06:14:28.983Z,12.62
2018-09-27T06:15:33.173Z,12.63
2018-09-27T06:16:38.775Z,12.65
2018-09-27T06:17:43.565Z,12.66
2018-09-27T06:18:49.084Z,12.68
2018-09-27T06:19:53.097Z,12.70
2018-09-27T06:20:57.102Z,12.72
2018-09-27T06:22:01.128Z,12.74
2018-09-27T06:23:05.160Z,12.76
2018-09-27T06:24:09.423Z,12.77
2018-09-27T06:25:13.591Z,12.79
2018-09-27T06:26:17.652Z,12.82
2018-09-27T06:27:21.631Z,12.84
2018-09-27T06:28:25.661Z,12.87
2018-09-27T06:29:29.674Z,12.87
2018-09-27T06:30:33.892Z,12.89
2018-09-27T06:31:38.283Z,12.90
2018-09-27T06:32:42.628Z,12.91
2018-09-27T06:33:46.663Z,12.94
2018-09-27T06:34:50.763Z,12.95
2018-09-27T06:35:54.732Z,12.96
2018-09-27T06:36:58.873Z,12.98
2018-09-27T06:38:02.933Z,12.98
2018-09-27T06:39:08.427Z,12.99
2018-09-27T06:40:12.444Z,13.01
2018-09-27T06:41:16.507Z,13.01
2018-09-27T06:42:20.496Z,13.03
2018-09-27T06:43:24.572Z,13.05
2018-09-27T06:44:28.682Z,13.06
2018-09-27T06:45:32.748Z,13.06
2018-09-27T06:46:36.749Z,13.05
2018-09-27T06:47:40.831Z,13.08
2018-09-27T06:48:44.900Z,13.09
2018-09-27T06:49:49.140Z,13.10
2018-09-27T06:50:53.204Z,13.11
2018-09-27T06:51:57.301Z,13.11
2018-09-27T06:53:01.358Z,13.12
2018-09-27T06:54:05.412Z,13.13
2018-09-27T06:55:09.502Z,13.14
2018-09-27T06:56:13.483Z,13.14
2018-09-27T06:57:17.487Z,13.15
2018-09-27T06:58:21.613Z,13.15
2018-09-27T06:59:25.638Z,13.17
2018-09-27T07:00:29.702Z,13.17
2018-09-27T07:01:33.704Z,13.18
2018-09-27T07:02:37.824Z,13.19
2018-09-27T07:03:42.087Z,13.19
2018-09-27T07:04:46.095Z,13.21
2018-09-27T07:05:50.041Z,13.22
2018-09-27T07:06:54.052Z,13.23
2018-09-27T07:07:58.107Z,13.24
2018-09-27T07:09:02.139Z,13.24
2018-09-27T07:10:06.151Z,13.25
2018-09-27T07:11:10.343Z,13.25
2018-09-27T07:12:14.411Z,13.27
2018-09-27T07:13:18.426Z,13.28
2018-09-27T07:14:22.558Z,13.29
2018-09-27T07:15:26.598Z,13.29
2018-09-27T07:16:31.170Z,13.30
2018-09-27T07:17:35.235Z,13.32
2018-09-27T07:18:39.244Z,13.34
2018-09-27T07:19:43.235Z,13.36
2018-09-27T07:20:47.292Z,13.37
2018-09-27T07:21:51.265Z,13.38
2018-09-27T07:22:55.768Z,13.39
2018-09-27T07:24:00.024Z,13.40
2018-09-27T07:25:04.201Z,13.42
2018-09-27T07:26:08.151Z,13.42
2018-09-27T07:27:12.192Z,13.44
2018-09-27T07:28:16.352Z,13.45
2018-09-27T07:29:20.362Z,13.46
2018-09-27T07:30:24.391Z,13.47
2018-09-27T07:31:28.355Z,13.47
2018-09-27T07:32:32.545Z,13.48
2018-09-27T07:33:36.862Z,13.49
2018-09-27T07:34:40.922Z,13.51
2018-09-27T07:35:45.334Z,13.52
2018-09-27T07:36:49.325Z,13.53
2018-09-27T07:37:53.336Z,13.54
2018-09-27T07:38:57.384Z,13.56
2018-09-27T07:40:01.506Z,13.57
2018-09-27T07:41:05.551Z,13.59
2018-09-27T07:42:09.661Z,13.60
2018-09-27T07:43:13.718Z,13.61
2018-09-27T07:44:17.735Z,13.62
2018-09-27T07:45:21.944Z,13.63
2018-09-27T07:46:26.262Z,13.64
2018-09-27T07:47:30.318Z,13.65
2018-09-27T07:48:34.317Z,13.66
2018-09-27T07:49:45.349Z,13.66
2018-09-27T07:50:49.515Z,13.68
2018-09-27T07:51:53.747Z,13.69
2018-09-27T07:52:57.784Z,13.69
2018-09-27T07:54:01.808Z,13.69
2018-09-27T07:55:05.963Z,13.72
2018-09-27T07:56:09.944Z,13.75
2018-09-27T07:57:14.244Z,13.75
2018-09-27T07:58:18.423Z,13.77
2018-09-27T07:59:22.458Z,13.78
2018-09-27T08:00:26.459Z,13.80
2018-09-27T08:01:30.763Z,13.81
2018-09-27T08:02:34.842Z,13.82
2018-09-27T08:03:38.819Z,13.84
2018-09-27T08:04:42.952Z,13.86
2018-09-27T08:05:47.048Z,13.88
2018-09-27T08:06:51.303Z,13.90
2018-09-27T08:07:55.518Z,13.92
2018-09-27T08:08:59.514Z,13.93
2018-09-27T08:10:03.523Z,13.95
2018-09-27T08:11:07.944Z,13.95
2018-09-27T08:12:12.784Z,13.97
2018-09-27T08:13:18.192Z,13.98
2018-09-27T08:14:22.221Z,14.01
2018-09-27T08:15:26.518Z,14.01
2018-09-27T08:16:30.660Z,14.03
2018-09-27T08:17:34.664Z,14.04
2018-09-27T08:18:38.732Z,14.06
2018-09-27T08:19:42.730Z,14.09
2018-09-27T08:20:46.800Z,14.12
2018-09-27T08:21:50.795Z,14.15
2018-09-27T08:22:56.139Z,14.19
2018-09-27T08:24:00.505Z,14.22
2018-09-27T08:25:04.542Z,14.22
2018-09-27T08:26:08.563Z,14.25
2018-09-27T08:27:12.596Z,14.26
2018-09-27T08:28:16.558Z,14.30
2018-09-27T08:29:20.568Z,14.31
2018-09-27T08:30:24.597Z,14.34
2018-09-27T08:31:28.604Z,14.36
2018-09-27T08:32:32.925Z,14.38
2018-09-27T08:33:36.891Z,14.40
2018-09-27T08:34:40.920Z,14.41
2018-09-27T08:35:44.984Z,14.43
2018-09-27T08:36:50.144Z,14.45
2018-09-27T08:37:54.155Z,14.45
2018-09-27T08:38:58.188Z,14.48
2018-09-27T08:40:02.255Z,14.49
2018-09-27T08:41:06.554Z,14.51
2018-09-27T08:42:11.424Z,14.54
2018-09-27T08:43:15.531Z,14.54
2018-09-27T08:44:19.548Z,14.55
2018-09-27T08:45:24.194Z,14.57
2018-09-27T08:46:28.698Z,14.58
2018-09-27T08:47:32.723Z,14.60
2018-09-27T08:48:36.749Z,14.63
2018-09-27T08:49:40.767Z,14.65
2018-09-27T08:50:44.827Z,14.67
2018-09-27T08:51:49.355Z,14.68
2018-09-27T08:52:53.411Z,14.69
2018-09-27T08:53:57.567Z,14.69
2018-09-27T08:55:01.763Z,14.72
2018-09-27T08:56:05.875Z,14.74
2018-09-27T08:57:09.986Z,14.76
2018-09-27T08:58:14.052Z,14.78
2018-09-27T08:59:18.087Z,14.80
2018-09-27T09:00:22.128Z,14.81
2018-09-27T09:01:26.954Z,14.83
2018-09-27T09:02:30.980Z,14.83
2018-09-27T09:03:35.140Z,14.86
2018-09-27T09:04:39.197Z,14.88
2018-09-27T09:05:43.239Z,14.91
2018-09-27T09:06:47.255Z,14.93
2018-09-27T09:07:51.274Z,14.94
2018-09-27T09:08:55.361Z,14.96
2018-09-27T09:09:59.627Z,14.98
2018-09-27T09:11:03.679Z,14.98
2018-09-27T09:12:07.798Z,15.00
2018-09-27T09:13:11.797Z,15.01
2018-09-27T09:14:15.815Z,15.03
2018-09-27T09:15:20.828Z,15.05
2018-09-27T09:16:25.005Z,15.08
2018-09-27T09:18:49.196Z,15.13
2018-09-27T09:19:53.276Z,15.15
2018-09-27T09:20:57.256Z,15.18
2018-09-27T09:22:01.402Z,15.20
2018-09-27T09:23:05.386Z,15.23
2018-09-27T09:24:09.416Z,15.25
2018-09-27T09:25:13.957Z,15.27
2018-09-27T09:26:17.989Z,15.29
2018-09-27T09:27:22.645Z,15.31
2018-09-27T09:28:26.745Z,15.32
2018-09-27T09:29:30.739Z,15.34
2018-09-27T09:30:35.001Z,15.38
2018-09-27T09:31:39.007Z,15.40
2018-09-27T09:32:43.427Z,15.45
2018-09-27T09:33:47.506Z,15.47
2018-09-27T09:34:53.896Z,15.51
2018-09-27T09:35:59.280Z,15.52
2018-09-27T09:37:03.266Z,15.54
2018-09-27T09:38:08.523Z,15.55
2018-09-27T09:39:12.538Z,15.57
2018-09-27T09:40:18.852Z,15.59
2018-09-27T09:41:22.919Z,15.62
2018-09-27T09:42:26.948Z,15.66
2018-09-27T09:43:30.958Z,15.68
2018-09-27T09:44:35.069Z,15.70
2018-09-27T09:45:39.359Z,15.72
2018-09-27T09:46:43.398Z,15.73
2018-09-27T09:47:47.419Z,15.74
2018-09-27T09:48:51.386Z,15.75
2018-09-27T09:49:56.115Z,15.75
2018-09-27T09:51:00.127Z,15.75
2018-09-27T09:52:04.134Z,15.76
2018-09-27T09:53:08.108Z,15.76
2018-09-27T09:54:12.099Z,15.78
2018-09-27T09:55:16.140Z,15.78
2018-09-27T09:56:20.257Z,15.80
2018-09-27T09:57:24.210Z,15.81
2018-09-27T09:58:28.220Z,15.81
2018-09-27T09:59:32.279Z,15.83
2018-09-27T10:00:37.802Z,15.85
2018-09-27T10:01:41.820Z,15.87
2018-09-27T10:02:45.848Z,15.89
2018-09-27T10:03:49.906Z,15.93
2018-09-27T10:04:54.375Z,15.98
2018-09-27T10:05:58.699Z,16.04
2018-09-27T10:07:02.854Z,16.08
2018-09-27T10:08:06.913Z,16.13
2018-09-27T10:09:12.092Z,16.16
2018-09-27T10:10:16.071Z,16.18
2018-09-27T10:11:20.124Z,16.19
2018-09-27T10:12:24.234Z,16.20
2018-09-27T10:13:28.168Z,16.21
2018-09-27T10:14:32.238Z,16.22
2018-09-27T10:15:36.214Z,16.24
2018-09-27T10:16:40.190Z,16.28
2018-09-27T10:17:44.203Z,16.34
2018-09-27T10:18:48.336Z,16.38
2018-09-27T10:19:52.323Z,16.41
2018-09-27T10:20:56.625Z,16.43
2018-09-27T10:22:00.733Z,16.45
2018-09-27T10:23:04.654Z,16.46
2018-09-27T10:24:08.756Z,16.45
2018-09-27T10:25:12.769Z,16.45
2018-09-27T10:26:16.824Z,16.46
2018-09-27T10:27:20.831Z,16.47
2018-09-27T10:28:24.812Z,16.47
2018-09-27T10:29:28.836Z,16.48
2018-09-27T10:30:32.815Z,16.51
2018-09-27T10:31:36.803Z,16.53
2018-09-27T10:32:41.606Z,16.55
2018-09-27T10:33:46.508Z,16.57
2018-09-27T10:34:50.553Z,16.63
2018-09-27T10:35:54.527Z,16.71
2018-09-27T10:36:58.581Z,16.77
2018-09-27T10:38:02.718Z,16.81
2018-09-27T10:39:08.676Z,16.84
2018-09-27T10:40:13.207Z,16.86
2018-09-27T10:41:19.326Z,16.88
2018-09-27T10:42:23.364Z,16.90
2018-09-27T10:43:27.327Z,16.92
2018-09-27T10:44:31.393Z,16.93
2018-09-27T10:45:35.546Z,16.93
2018-09-27T10:46:39.652Z,16.94
2018-09-27T10:47:44.195Z,16.95
2018-09-27T10:48:48.235Z,16.96
2018-09-27T10:49:52.260Z,16.96
2018-09-27T10:50:56.566Z,16.97
2018-09-27T10:52:00.984Z,16.99
2018-09-27T10:53:06.599Z,17.00
2018-09-27T10:54:10.605Z,17.01
2018-09-27T10:55:14.795Z,17.04
2018-09-27T10:56:18.855Z,17.05
2018-09-27T10:57:23.083Z,17.08
2018-09-27T10:58:27.078Z,17.12
2018-09-27T10:59:31.232Z,17.15
2018-09-27T11:00:35.202Z,17.17
2018-09-27T11:01:39.284Z,17.21
2018-09-27T11:02:43.275Z,17.23
2018-09-27T11:03:48.156Z,17.25
2018-09-27T11:04:52.862Z,17.27
2018-09-27T11:05:57.024Z,17.32
2018-09-27T11:07:01.844Z,17.38
2018-09-27T11:08:06.146Z,17.44
2018-09-27T11:09:10.497Z,17.48
2018-09-27T11:10:14.509Z,17.53
2018-09-27T11:11:18.571Z,17.57
2018-09-27T11:12:22.546Z,17.57
2018-09-27T11:13:27.850Z,17.58
2018-09-27T11:14:31.874Z,17.58
2018-09-27T11:15:36.983Z,17.58
2018-09-27T11:16:41.660Z,17.61
2018-09-27T11:17:45.754Z,17.64
2018-09-27T11:18:50.090Z,17.67
2018-09-27T11:19:54.152Z,17.69
2018-09-27T11:20:58.200Z,17.74
2018-09-27T11:22:03.491Z,17.76
2018-09-27T11:23:07.977Z,17.81
2018-09-27T11:24:13.564Z,17.86
2018-09-27T11:25:17.641Z,17.89
2018-09-27T11:26:21.735Z,17.91
2018-09-27T11:27:26.144Z,17.92
2018-09-27T11:28:36.181Z,17.94
2018-09-27T11:29:45.538Z,17.96
2018-09-27T11:30:55.901Z,17.95
2018-09-27T11:33:07.354Z,17.95
2018-09-27T11:34:11.430Z,17.90
2018-09-27T11:35:16.393Z,17.89
2018-09-27T11:36:21.558Z,17.86
2018-09-27T11:37:25.782Z,17.86
2018-09-27T11:38:31.569Z,17.85
2018-09-27T11:39:37.627Z,17.87
2018-09-27T11:40:41.632Z,17.87
2018-09-27T11:41:45.634Z,17.88
2018-09-27T11:42:49.732Z,17.90
2018-09-27T11:43:53.754Z,17.93
2018-09-27T11:44:57.943Z,17.95
2018-09-27T11:46:02.049Z,17.97
2018-09-27T11:47:07.170Z,17.99
2018-09-27T11:48:12.183Z,18.02
2018-09-27T11:49:16.576Z,18.04
2018-09-27T11:50:20.619Z,18.08
2018-09-27T11:51:24.516Z,18.12
2018-09-27T11:52:28.543Z,18.13
2018-09-27T11:53:33.269Z,18.15
2018-09-27T11:54:38.368Z,18.16
2018-09-27T11:55:43.453Z,18.18
2018-09-27T11:56:47.504Z,18.21
2018-09-27T11:57:52.293Z,18.25
2018-09-27T11:58:56.717Z,18.26
2018-09-27T12:00:01.329Z,18.28
2018-09-27T12:01:06.291Z,18.29
2018-09-27T12:02:10.951Z,18.29
2018-09-27T12:03:14.887Z,18.31
2018-09-27T12:04:18.894Z,18.35
2018-09-27T12:05:23.547Z,18.38
2018-09-27T12:06:27.612Z,18.39
2018-09-27T12:07:31.619Z,18.40
2018-09-27T12:08:35.627Z,18.40
2018-09-27T12:09:39.591Z,18.40
2018-09-27T12:10:43.768Z,18.40
2018-09-27T12:11:47.855Z,18.44
2018-09-27T12:12:51.914Z,18.47
2018-09-27T12:13:56.434Z,18.52
2018-09-27T12:15:00.495Z,18.59
2018-09-27T12:16:04.559Z,18.61
2018-09-27T12:17:09.701Z,18.63
2018-09-27T12:18:13.805Z,18.67
2018-09-27T12:19:17.878Z,18.67
2018-09-27T12:20:21.927Z,18.67
2018-09-27T12:21:25.898Z,18.67
2018-09-27T12:22:30.753Z,18.67
2018-09-27T12:23:34.836Z,18.67
2018-09-27T12:24:38.891Z,18.68
2018-09-27T12:25:43.041Z,18.68
2018-09-27T12:26:46.932Z,18.68
2018-09-27T12:27:50.902Z,18.69
2018-09-27T12:28:54.871Z,18.70
2018-09-27T12:29:58.885Z,18.70
2018-09-27T12:31:02.857Z,18.72
2018-09-27T12:32:06.827Z,18.72
2018-09-27T12:33:11.591Z,18.72
2018-09-27T12:34:17.560Z,18.71
2018-09-27T12:35:21.557Z,18.72
2018-09-27T12:36:26.527Z,18.73
2018-09-27T12:37:30.584Z,18.73
2018-09-27T12:38:35.980Z,18.77
2018-09-27T12:39:39.960Z,18.78
2018-09-27T12:40:43.977Z,18.80
2018-09-27T12:41:48.033Z,18.84
2018-09-27T12:42:52.016Z,18.88
2018-09-27T12:43:55.943Z,18.93
2018-09-27T12:45:01.328Z,18.96
2018-09-27T12:46:05.395Z,19.00
2018-09-27T12:47:09.252Z,19.04
2018-09-27T12:48:13.365Z,19.04
2018-09-27T12:49:18.248Z,19.04
2018-09-27T12:50:22.331Z,19.05
2018-09-27T12:51:27.254Z,19.08
2018-09-27T12:52:32.197Z,19.10
2018-09-27T12:53:36.894Z,19.10
2018-09-27T12:54:40.982Z,19.10
2018-09-27T12:55:45.383Z,19.09
2018-09-27T12:56:49.446Z,19.08
2018-09-27T12:57:53.518Z,19.08
2018-09-27T12:58:57.543Z,19.12
2018-09-27T13:00:01.571Z,19.15
2018-09-27T13:01:05.628Z,19.19
2018-09-27T13:02:09.841Z,19.22
2018-09-27T13:03:13.879Z,19.27
2018-09-27T13:04:17.843Z,19.27
2018-09-27T13:05:22.396Z,19.27
2018-09-27T13:06:26.482Z,19.25
2018-09-27T13:07:30.444Z,19.28
2018-09-27T13:08:35.980Z,19.30
2018-09-27T13:09:40.140Z,19.29
2018-09-27T13:10:44.273Z,19.30
2018-09-27T13:11:48.290Z,19.30
2018-09-27T13:12:52.364Z,19.32
2018-09-27T13:13:56.330Z,19.37
2018-09-27T13:15:01.152Z,19.41
2018-09-27T13:16:05.264Z,19.44
2018-09-27T13:17:09.178Z,19.45
2018-09-27T13:18:13.109Z,19.45
2018-09-27T13:19:17.149Z,19.45
2018-09-27T13:20:22.462Z,19.42
2018-09-27T13:21:26.474Z,19.42
2018-09-27T13:22:30.556Z,19.42
2018-09-27T13:23:34.624Z,19.42
2018-09-27T13:24:38.669Z,19.42
2018-09-27T13:25:42.740Z,19.41
2018-09-27T13:26:46.752Z,19.39
2018-09-27T13:27:51.372Z,19.39
2018-09-27T13:28:55.424Z,19.38
2018-09-27T13:29:59.502Z,19.38
2018-09-27T13:31:05.095Z,19.36
2018-09-27T13:32:09.095Z,19.34
2018-09-27T13:33:13.118Z,19.33
2018-09-27T13:34:18.633Z,19.35
2018-09-27T13:35:22.630Z,19.35
2018-09-27T13:36:26.675Z,19.36
2018-09-27T13:37:30.736Z,19.35
2018-09-27T13:38:34.717Z,19.36
2018-09-27T13:39:38.736Z,19.37
2018-09-27T13:40:42.729Z,19.38
2018-09-27T13:41:47.058Z,19.39
2018-09-27T13:42:51.823Z,19.40
2018-09-27T13:43:55.791Z,19.40
2018-09-27T13:44:59.828Z,19.42
2018-09-27T13:46:04.503Z,19.42
2018-09-27T13:47:09.449Z,19.44
2018-09-27T13:48:13.572Z,19.45
2018-09-27T13:49:17.605Z,19.47
2018-09-27T13:50:21.603Z,19.53
2018-09-27T13:51:25.709Z,19.58